createdAt,value
2018-11-05T00:01:28.977Z,82.50
2018-11-05T00:04:07.412Z,82.30
2018-11-05T00:06:45.772Z,82.40
2018-11-05T00:09:25.176Z,82.40
2018-11-05T00:12:03.526Z,82.50
2018-11-05T00:14:42.329Z,82.60
2018-11-05T00:17:20.851Z,82.90
2018-11-05T00:19:59.429Z,83.00
2018-11-05T00:22:37.952Z,83.00
2018-11-05T00:25:16.802Z,83.10
2018-11-05T00:27:55.137Z,83.10
2018-11-05T00:30:33.777Z,83.00
2018-11-05T00:33:12.123Z,83.10
2018-11-05T00:35:51.291Z,83.20
2018-11-05T00:38:29.669Z,83.10
2018-11-05T00:41:08.485Z,83.00
2018-11-05T00:43:47.706Z,82.80
2018-11-05T00:46:26.615Z,82.50
2018-11-05T00:49:05.270Z,82.40
2018-11-05T00:51:44.182Z,82.20
2018-11-05T00:54:23.184Z,82.20
2018-11-05T00:57:03.581Z,82.30
2018-11-05T00:59:41.932Z,82.50
2018-11-05T01:02:20.459Z,82.70
2018-11-05T01:05:10.291Z,82.70
2018-11-05T01:10:35.535Z,82.80
2018-11-05T01:13:14.364Z,83.20
2018-11-05T01:15:52.621Z,83.30
2018-11-05T01:18:35.485Z,83.50
2018-11-05T01:21:14.822Z,83.50
2018-11-05T01:23:53.236Z,83.40
2018-11-05T01:26:31.823Z,84.00
2018-11-05T01:29:10.581Z,83.50
2018-11-05T01:31:52.685Z,83.50
2018-11-05T01:34:31.273Z,83.40
2018-11-05T01:37:09.874Z,83.40
2018-11-05T01:39:49.196Z,83.60
2018-11-05T01:42:28.042Z,83.80
2018-11-05T01:47:55.072Z,83.30
2018-11-05T01:50:40.371Z,83.30
2018-11-05T01:53:35.175Z,83.20
2018-11-05T01:56:19.277Z,83.30
2018-11-05T01:59:02.842Z,83.40
2018-11-05T02:01:45.636Z,83.60
2018-11-05T02:04:33.392Z,83.80
2018-11-05T02:07:17.739Z,83.90
2018-11-05T02:10:01.179Z,84.00
2018-11-05T02:12:45.906Z,84.30
2018-11-05T02:18:16.868Z,84.60
2018-11-05T02:20:58.331Z,84.90
2018-11-05T02:23:41.522Z,85.10
2018-11-05T02:26:22.879Z,85.20
2018-11-05T02:29:04.082Z,85.20
2018-11-05T02:37:18.981Z,85.30
2018-11-05T02:40:02.614Z,85.40
2018-11-05T02:42:41.714Z,85.30
2018-11-05T02:45:20.972Z,85.40
2018-11-05T02:47:59.539Z,85.60
2018-11-05T02:50:38.166Z,85.80
2018-11-05T02:53:16.499Z,85.80
2018-11-05T02:55:55.081Z,85.80
2018-11-05T02:58:33.996Z,85.90
2018-11-05T03:01:12.655Z,86.00
2018-11-05T03:03:51.268Z,85.90
2018-11-05T03:06:30.028Z,85.70
2018-11-05T03:09:09.830Z,85.90
2018-11-05T03:11:50.520Z,86.20
2018-11-05T03:14:28.935Z,86.20
2018-11-05T03:17:08.306Z,86.20
2018-11-05T03:19:46.541Z,86.20
2018-11-05T03:22:25.312Z,86.30
2018-11-05T03:25:04.082Z,86.00
2018-11-05T03:27:43.324Z,86.10
2018-11-05T03:30:22.005Z,86.20
2018-11-05T03:33:00.944Z,86.30
2018-11-05T03:35:39.561Z,86.20
2018-11-05T03:38:18.366Z,86.50
2018-11-05T03:40:57.117Z,86.40
2018-11-05T03:43:36.621Z,87.00
2018-11-05T03:46:19.018Z,86.70
2018-11-05T03:48:57.797Z,86.80
2018-11-05T03:51:40.334Z,87.50
2018-11-05T03:54:18.970Z,87.30
2018-11-05T03:56:57.494Z,86.80
2018-11-05T03:59:36.229Z,86.60
2018-11-05T04:02:14.635Z,86.70
2018-11-05T04:04:53.367Z,86.60
2018-11-05T04:07:33.947Z,86.50
2018-11-05T04:10:14.174Z,86.40
2018-11-05T04:12:52.951Z,86.30
2018-11-05T04:15:31.618Z,86.30
2018-11-05T04:18:10.443Z,86.50
2018-11-05T04:20:49.117Z,86.10
2018-11-05T04:23:30.388Z,86.50
2018-11-05T04:26:09.286Z,86.10
2018-11-05T04:28:47.475Z,85.80
2018-11-05T04:31:26.202Z,85.80
2018-11-05T04:34:04.590Z,85.80
2018-11-05T04:36:43.617Z,85.50
2018-11-05T04:39:22.069Z,85.50
2018-11-05T04:42:00.583Z,85.50
2018-11-05T04:44:38.726Z,85.30
2018-11-05T04:47:18.117Z,84.80
2018-11-05T04:49:56.699Z,84.40
2018-11-05T04:52:39.418Z,84.40
2018-11-05T04:55:17.690Z,84.50
2018-11-05T04:57:56.403Z,84.50
2018-11-05T05:00:34.989Z,84.80
2018-11-05T05:03:13.865Z,84.60
2018-11-05T05:05:52.529Z,84.70
2018-11-05T05:08:30.803Z,84.60
2018-11-05T05:11:09.622Z,84.70
2018-11-05T05:13:48.392Z,84.80
2018-11-05T05:16:28.509Z,84.70
2018-11-05T05:19:08.006Z,83.60
2018-11-05T05:21:46.498Z,82.90
2018-11-05T05:24:25.318Z,82.40
2018-11-05T05:27:03.980Z,83.30
2018-11-05T05:29:43.757Z,82.70
2018-11-05T05:32:27.527Z,83.10
2018-11-05T05:35:07.163Z,83.70
2018-11-05T05:37:47.814Z,83.70
2018-11-05T05:40:30.740Z,83.80
2018-11-05T05:49:37.481Z,80.90
2018-11-05T05:55:13.108Z,80.80
2018-11-05T05:57:57.084Z,79.70
2018-11-05T06:00:38.485Z,80.10
2018-11-05T06:03:18.936Z,79.90
2018-11-05T06:06:01.541Z,80.30
2018-11-05T06:08:45.078Z,80.90
2018-11-05T06:11:26.150Z,81.10
2018-11-05T06:16:58.980Z,81.90
2018-11-05T06:19:45.546Z,81.90
2018-11-05T06:22:25.038Z,81.90
2018-11-05T06:25:06.266Z,82.00
2018-11-05T06:30:43.854Z,80.90
2018-11-05T06:33:26.232Z,80.70
2018-11-05T06:36:09.029Z,81.10
2018-11-05T06:38:52.541Z,81.60
2018-11-05T06:44:19.976Z,82.10
2018-11-05T06:47:02.716Z,82.20
2018-11-05T06:49:45.583Z,81.90
2018-11-05T06:52:28.682Z,81.80
2018-11-05T06:55:10.173Z,82.00
2018-11-05T06:57:55.534Z,81.70
2018-11-05T07:00:33.946Z,81.10
2018-11-05T07:03:13.303Z,81.00
2018-11-05T07:14:21.577Z,81.80
2018-11-05T07:20:05.378Z,80.10
2018-11-05T07:22:55.593Z,80.20
2018-11-05T07:25:34.257Z,79.80
2018-11-05T07:28:22.677Z,80.20
2018-11-05T07:31:01.370Z,80.60
2018-11-05T07:33:39.541Z,80.40
2018-11-05T07:36:18.143Z,80.30
2018-11-05T07:38:56.412Z,79.90
2018-11-05T07:41:36.085Z,79.10
2018-11-05T07:44:15.101Z,78.00
2018-11-05T07:46:53.709Z,77.10
2018-11-05T07:49:31.752Z,76.20
2018-11-05T07:52:10.821Z,75.80
2018-11-05T07:54:49.512Z,76.10
2018-11-05T07:57:29.124Z,76.30
2018-11-05T08:00:11.961Z,76.80
2018-11-05T08:02:51.672Z,77.20
2018-11-05T08:05:30.443Z,77.30
2018-11-05T08:08:09.575Z,77.40
2018-11-05T08:10:47.817Z,77.40
2018-11-05T08:13:26.689Z,77.90
2018-11-05T08:16:04.830Z,77.40
2018-11-05T08:18:43.555Z,77.20
2018-11-05T08:21:21.946Z,77.30
2018-11-05T08:24:01.068Z,77.00
2018-11-05T08:26:40.819Z,77.20
2018-11-05T08:29:19.599Z,77.30
2018-11-05T08:34:49.708Z,78.80
2018-11-05T08:37:29.257Z,78.00
2018-11-05T08:40:09.883Z,78.20
2018-11-05T08:42:51.309Z,78.10
2018-11-05T08:45:32.219Z,78.20
2018-11-05T08:48:10.932Z,77.90
2018-11-05T08:50:49.723Z,77.70
2018-11-05T08:53:28.414Z,78.00
2018-11-05T08:56:07.177Z,77.70
2018-11-05T08:58:45.883Z,77.60
2018-11-05T09:01:25.515Z,77.60
2018-11-05T09:04:04.882Z,77.10
2018-11-05T09:06:43.840Z,77.10
2018-11-05T09:09:23.916Z,76.70
2018-11-05T09:12:03.940Z,76.90
2018-11-05T09:14:44.095Z,76.80
2018-11-05T09:17:27.641Z,76.00
2018-11-05T09:20:06.363Z,75.10
2018-11-05T09:22:45.798Z,74.30
2018-11-05T09:25:24.665Z,74.80
2018-11-05T09:28:04.209Z,75.20
2018-11-05T09:30:43.224Z,75.50
2018-11-05T09:33:22.521Z,75.80
2018-11-05T09:36:01.300Z,75.70
2018-11-05T09:38:40.756Z,75.70
2018-11-05T09:41:21.202Z,75.20
2018-11-05T09:44:00.282Z,75.20
2018-11-05T09:46:40.561Z,74.70
2018-11-05T09:49:19.950Z,74.20
2018-11-05T09:51:59.037Z,72.10
2018-11-05T09:54:38.131Z,71.90
2018-11-05T09:57:19.861Z,72.50
2018-11-05T09:59:59.678Z,71.60
2018-11-05T10:02:42.291Z,71.90
2018-11-05T10:05:25.492Z,72.20
2018-11-05T10:08:06.948Z,72.20
2018-11-05T10:10:46.188Z,71.40
2018-11-05T10:13:25.272Z,71.00
2018-11-05T10:16:04.238Z,71.40
2018-11-05T10:18:43.033Z,71.80
2018-11-05T10:21:27.430Z,71.60
2018-11-05T10:24:06.133Z,71.30
2018-11-05T10:26:45.335Z,71.30
2018-11-05T10:30:27.815Z,71.30
2018-11-05T10:33:13.264Z,71.50
2018-11-05T10:36:02.743Z,72.30
2018-11-05T10:38:42.120Z,72.60
2018-11-05T10:41:21.354Z,73.90
2018-11-05T10:44:00.316Z,73.40
2018-11-05T10:46:39.453Z,73.70
2018-11-05T10:49:18.742Z,73.80
2018-11-05T10:51:57.912Z,73.90
2018-11-05T10:54:36.890Z,74.10
2018-11-05T10:57:15.650Z,74.40
2018-11-05T10:59:54.634Z,74.70
2018-11-05T11:02:37.293Z,75.00
2018-11-05T11:11:06.392Z,75.90
2018-11-05T11:13:45.348Z,76.30
2018-11-05T11:16:28.324Z,76.40
2018-11-05T11:19:06.399Z,76.50
2018-11-05T11:21:45.636Z,76.40
2018-11-05T11:24:24.483Z,76.70
2018-11-05T11:27:02.338Z,77.00
2018-11-05T11:29:40.279Z,77.20
2018-11-05T11:32:18.117Z,77.50
2018-11-05T11:34:56.316Z,77.50
2018-11-05T11:37:36.090Z,77.50
2018-11-05T11:40:23.657Z,77.60
2018-11-05T11:43:03.681Z,77.80
2018-11-05T11:45:42.786Z,77.80
2018-11-05T11:48:21.365Z,78.00
2018-11-05T11:51:02.512Z,78.50
2018-11-05T11:53:41.349Z,78.60
2018-11-05T11:56:20.693Z,78.80
2018-11-05T11:59:08.769Z,79.10
2018-11-05T12:01:51.602Z,79.20
2018-11-05T12:04:30.474Z,79.30
2018-11-05T12:07:09.980Z,79.50
2018-11-05T12:09:48.777Z,79.80
2018-11-05T12:12:28.009Z,80.00
2018-11-05T12:15:07.084Z,80.40
2018-11-05T12:17:46.150Z,80.50
2018-11-05T12:20:26.093Z,80.50
2018-11-05T12:23:05.208Z,80.70
2018-11-05T12:25:43.889Z,80.90
2018-11-05T12:28:23.299Z,81.50
2018-11-05T12:31:01.561Z,81.40
2018-11-05T12:33:43.360Z,81.40
2018-11-05T12:36:22.261Z,81.40
2018-11-05T12:39:01.107Z,81.50
2018-11-05T12:41:40.300Z,81.50
2018-11-05T12:44:18.963Z,81.70
2018-11-05T12:46:57.727Z,81.70
2018-11-05T12:49:36.889Z,81.60
2018-11-05T12:52:15.769Z,81.40
2018-11-05T12:54:55.020Z,81.60
2018-11-05T12:57:34.324Z,81.60
2018-11-05T13:00:14.807Z,81.60
2018-11-05T13:02:57.797Z,81.50
2018-11-05T13:05:37.125Z,81.50
